sensor_id;sensor_type;location;lat;lon;timestamp;pressure;altitude;pressure_sealevel;temperature;humidity
75172;BME280;63750;52.418;20.742;2023-03-01T00:00:54;102034.15;;;2.15;50.47
75172;BME280;63750;52.418;20.742;2023-03-01T00:03:21;102033.66;;;2.13;50.60
75172;BME280;63750;52.418;20.742;2023-03-01T00:05:49;102032.73;;;2.08;50.58
75172;BME280;63750;52.418;20.742;2023-03-01T00:08:16;102035.53;;;2.08;50.68
75172;BME280;63750;52.418;20.742;2023-03-01T00:10:43;102030.31;;;2.08;50.90
75172;BME280;63750;52.418;20.742;2023-03-01T00:13:10;102027.23;;;2.05;51.08
75172;BME280;63750;52.418;20.742;2023-03-01T00:15:40;102023.55;;;2.06;50.87
75172;BME280;63750;52.418;20.742;2023-03-01T00:18:07;102014.86;;;2.04;50.99
75172;BME280;63750;52.418;20.742;2023-03-01T00:20:35;102022.06;;;2.03;51.03
75172;BME280;63750;52.418;20.742;2023-03-01T00:23:02;102016.66;;;2.02;51.12
75172;BME280;63750;52.418;20.742;2023-03-01T00:25:29;102008.73;;;1.98;51.35
75172;BME280;63750;52.418;20.742;2023-03-01T00:27:57;102009.27;;;1.97;51.42
75172;BME280;63750;52.418;20.742;2023-03-01T00:30:24;102008.04;;;1.98;51.49
75172;BME280;63750;52.418;20.742;2023-03-01T00:32:51;102008.02;;;1.98;51.46
75172;BME280;63750;52.418;20.742;2023-03-01T00:35:19;102011.14;;;1.99;51.65
75172;BME280;63750;52.418;20.742;2023-03-01T00:37:46;102012.69;;;2.00;51.64
75172;BME280;63750;52.418;20.742;2023-03-01T00:40:15;102005.55;;;1.99;51.66
75172;BME280;63750;52.418;20.742;2023-03-01T00:42:42;102008.12;;;1.95;51.84
75172;BME280;63750;52.418;20.742;2023-03-01T00:45:10;102008.30;;;1.88;51.76
75172;BME280;63750;52.418;20.742;2023-03-01T00:47:38;102008.33;;;1.88;51.89
75172;BME280;63750;52.418;20.742;2023-03-01T00:50:07;102006.91;;;1.89;52.13
75172;BME280;63750;52.418;20.742;2023-03-01T00:52:35;102003.42;;;1.88;52.21
75172;BME280;63750;52.418;20.742;2023-03-01T00:55:03;102003.30;;;1.92;52.21
75172;BME280;63750;52.418;20.742;2023-03-01T00:57:31;101996.25;;;1.94;52.19
75172;BME280;63750;52.418;20.742;2023-03-01T00:59:58;101997.44;;;1.95;52.36
75172;BME280;63750;52.418;20.742;2023-03-01T01:02:26;101996.41;;;1.94;52.34
75172;BME280;63750;52.418;20.742;2023-03-01T01:04:54;101999.05;;;1.94;52.16
75172;BME280;63750;52.418;20.742;2023-03-01T01:07:21;101997.77;;;1.91;52.12
75172;BME280;63750;52.418;20.742;2023-03-01T01:09:48;101993.45;;;1.89;52.46
75172;BME280;63750;52.418;20.742;2023-03-01T01:12:16;101991.15;;;1.83;52.73
75172;BME280;63750;52.418;20.742;2023-03-01T01:14:43;101988.48;;;1.78;52.57
75172;BME280;63750;52.418;20.742;2023-03-01T01:17:11;101990.92;;;1.72;52.46
75172;BME280;63750;52.418;20.742;2023-03-01T01:19:38;101991.61;;;1.72;52.71
75172;BME280;63750;52.418;20.742;2023-03-01T01:22:05;101979.10;;;1.70;52.53
75172;BME280;63750;52.418;20.742;2023-03-01T01:24:33;101981.42;;;1.68;52.76
75172;BME280;63750;52.418;20.742;2023-03-01T01:27:00;101980.27;;;1.64;52.93
75172;BME280;63750;52.418;20.742;2023-03-01T01:29:27;101974.85;;;1.65;52.97
75172;BME280;63750;52.418;20.742;2023-03-01T01:31:55;101970.48;;;1.59;53.36
75172;BME280;63750;52.418;20.742;2023-03-01T01:34:23;101967.95;;;1.56;53.42
75172;BME280;63750;52.418;20.742;2023-03-01T01:36:51;101971.79;;;1.56;53.47
75172;BME280;63750;52.418;20.742;2023-03-01T01:39:19;101970.66;;;1.59;53.24
75172;BME280;63750;52.418;20.742;2023-03-01T01:41:47;101970.78;;;1.61;53.35
75172;BME280;63750;52.418;20.742;2023-03-01T01:44:18;101966.52;;;1.63;53.41
75172;BME280;63750;52.418;20.742;2023-03-01T01:46:48;101963.30;;;1.66;53.29
75172;BME280;63750;52.418;20.742;2023-03-01T01:49:22;101960.67;;;1.66;53.37
75172;BME280;63750;52.418;20.742;2023-03-01T01:51:57;101957.61;;;1.70;53.52
75172;BME280;63750;52.418;20.742;2023-03-01T01:54:30;101953.82;;;1.74;53.42
75172;BME280;63750;52.418;20.742;2023-03-01T01:57:02;101949.34;;;1.78;53.46
75172;BME280;63750;52.418;20.742;2023-03-01T01:59:31;101949.26;;;1.81;53.51
75172;BME280;63750;52.418;20.742;2023-03-01T02:02:00;101949.34;;;1.85;53.48
75172;BME280;63750;52.418;20.742;2023-03-01T02:04:29;101953.48;;;1.87;53.54
75172;BME280;63750;52.418;20.742;2023-03-01T02:07:02;101954.47;;;1.89;53.48
75172;BME280;63750;52.418;20.742;2023-03-01T02:09:31;101954.73;;;1.92;53.44
75172;BME280;63750;52.418;20.742;2023-03-01T02:11:59;101949.60;;;1.94;53.48
75172;BME280;63750;52.418;20.742;2023-03-01T02:14:27;101946.95;;;1.94;53.32
75172;BME280;63750;52.418;20.742;2023-03-01T02:16:54;101944.03;;;1.93;53.36
75172;BME280;63750;52.418;20.742;2023-03-01T02:19:33;101947.84;;;1.94;53.41
75172;BME280;63750;52.418;20.742;2023-03-01T02:22:18;101947.20;;;1.93;53.45
75172;BME280;63750;52.418;20.742;2023-03-01T02:24:56;101942.73;;;1.90;53.43
75172;BME280;63750;52.418;20.742;2023-03-01T02:27:31;101938.75;;;1.88;53.46
75172;BME280;63750;52.418;20.742;2023-03-01T02:30:00;101936.16;;;1.81;53.51
75172;BME280;63750;52.418;20.742;2023-03-01T02:32:28;101933.77;;;1.79;53.43
75172;BME280;63750;52.418;20.742;2023-03-01T02:34:56;101931.28;;;1.74;53.53
75172;BME280;63750;52.418;20.742;2023-03-01T02:37:25;101935.88;;;1.72;53.52
75172;BME280;63750;52.418;20.742;2023-03-01T02:39:58;101932.27;;;1.70;53.81
75172;BME280;63750;52.418;20.742;2023-03-01T02:42:30;101935.20;;;1.71;53.66
75172;BME280;63750;52.418;20.742;2023-03-01T02:44:58;101929.80;;;1.71;53.59
75172;BME280;63750;52.418;20.742;2023-03-01T02:47:26;101925.26;;;1.71;53.99
75172;BME280;63750;52.418;20.742;2023-03-01T02:49:53;101923.48;;;1.72;53.87
75172;BME280;63750;52.418;20.742;2023-03-01T02:52:33;101916.08;;;1.74;53.92
75172;BME280;63750;52.418;20.742;2023-03-01T02:55:07;101912.04;;;1.75;53.97
75172;BME280;63750;52.418;20.742;2023-03-01T02:57:38;101910.84;;;1.75;53.90
75172;BME280;63750;52.418;20.742;2023-03-01T03:00:10;101910.09;;;1.76;53.76
75172;BME280;63750;52.418;20.742;2023-03-01T03:02:38;101916.56;;;1.76;53.70
75172;BME280;63750;52.418;20.742;2023-03-01T03:05:10;101911.58;;;1.79;53.86
75172;BME280;63750;52.418;20.742;2023-03-01T03:07:39;101900.27;;;1.83;54.07
75172;BME280;63750;52.418;20.742;2023-03-01T03:10:10;101897.98;;;1.84;53.90
75172;BME280;63750;52.418;20.742;2023-03-01T03:12:39;101894.02;;;1.82;53.81
75172;BME280;63750;52.418;20.742;2023-03-01T03:15:09;101892.61;;;1.76;53.95
75172;BME280;63750;52.418;20.742;2023-03-01T03:17:38;101891.73;;;1.70;53.91
75172;BME280;63750;52.418;20.742;2023-03-01T03:20:09;101889.34;;;1.68;53.94
75172;BME280;63750;52.418;20.742;2023-03-01T03:22:38;101884.95;;;1.63;53.88
75172;BME280;63750;52.418;20.742;2023-03-01T03:25:07;101881.31;;;1.62;53.99
75172;BME280;63750;52.418;20.742;2023-03-01T03:27:35;101885.58;;;1.60;53.80
75172;BME280;63750;52.418;20.742;2023-03-01T03:30:02;101888.25;;;1.58;54.06
75172;BME280;63750;52.418;20.742;2023-03-01T03:32:30;101894.08;;;1.55;53.96
75172;BME280;63750;52.418;20.742;2023-03-01T03:34:58;101895.12;;;1.55;54.23
75172;BME280;63750;52.418;20.742;2023-03-01T03:37:25;101899.09;;;1.57;54.19
75172;BME280;63750;52.418;20.742;2023-03-01T03:39:52;101898.34;;;1.59;54.07
75172;BME280;63750;52.418;20.742;2023-03-01T03:42:20;101896.23;;;1.60;54.18
75172;BME280;63750;52.418;20.742;2023-03-01T03:44:47;101889.39;;;1.61;54.29
75172;BME280;63750;52.418;20.742;2023-03-01T03:47:14;101885.21;;;1.60;54.17
75172;BME280;63750;52.418;20.742;2023-03-01T03:49:42;101880.12;;;1.61;54.30
75172;BME280;63750;52.418;20.742;2023-03-01T03:52:09;101873.97;;;1.62;54.33
75172;BME280;63750;52.418;20.742;2023-03-01T03:54:37;101871.02;;;1.61;54.44
75172;BME280;63750;52.418;20.742;2023-03-01T03:57:04;101869.89;;;1.64;54.29
75172;BME280;63750;52.418;20.742;2023-03-01T03:59:31;101859.19;;;1.60;54.53
75172;BME280;63750;52.418;20.742;2023-03-01T04:01:59;101854.58;;;1.56;54.42
75172;BME280;63750;52.418;20.742;2023-03-01T04:04:26;101859.21;;;1.53;54.63
75172;BME280;63750;52.418;20.742;2023-03-01T04:06:54;101863.11;;;1.45;54.67
75172;BME280;63750;52.418;20.742;2023-03-01T04:09:21;101866.31;;;1.43;54.65
75172;BME280;63750;52.418;20.742;2023-03-01T04:11:48;101863.51;;;1.43;54.88
75172;BME280;63750;52.418;20.742;2023-03-01T04:14:16;101871.05;;;1.42;54.81
75172;BME280;63750;52.418;20.742;2023-03-01T04:16:43;101871.55;;;1.43;54.81
75172;BME280;63750;52.418;20.742;2023-03-01T04:19:10;101869.20;;;1.39;54.88
75172;BME280;63750;52.418;20.742;2023-03-01T04:21:38;101861.76;;;1.36;55.10
75172;BME280;63750;52.418;20.742;2023-03-01T04:24:06;101856.38;;;1.35;55.00
75172;BME280;63750;52.418;20.742;2023-03-01T04:26:34;101850.27;;;1.29;55.08
75172;BME280;63750;52.418;20.742;2023-03-01T04:29:01;101848.42;;;1.26;55.11
75172;BME280;63750;52.418;20.742;2023-03-01T04:31:28;101848.94;;;1.27;55.20
75172;BME280;63750;52.418;20.742;2023-03-01T04:33:56;101849.33;;;1.25;55.34
75172;BME280;63750;52.418;20.742;2023-03-01T04:36:25;101844.34;;;1.23;55.28
75172;BME280;63750;52.418;20.742;2023-03-01T04:38:53;101843.55;;;1.20;55.40
75172;BME280;63750;52.418;20.742;2023-03-01T04:41:22;101841.60;;;1.20;55.38
75172;BME280;63750;52.418;20.742;2023-03-01T04:43:50;101835.34;;;1.20;55.41
75172;BME280;63750;52.418;20.742;2023-03-01T04:46:19;101833.95;;;1.19;55.96
75172;BME280;63750;52.418;20.742;2023-03-01T04:48:47;101831.92;;;1.23;55.69
75172;BME280;63750;52.418;20.742;2023-03-01T04:51:15;101831.02;;;1.25;55.76
75172;BME280;63750;52.418;20.742;2023-03-01T04:53:43;101828.00;;;1.26;55.64
75172;BME280;63750;52.418;20.742;2023-03-01T04:56:10;101826.92;;;1.28;55.74
75172;BME280;63750;52.418;20.742;2023-03-01T04:58:38;101815.05;;;1.27;55.75
75172;BME280;63750;52.418;20.742;2023-03-01T05:01:10;101815.95;;;1.27;55.70
75172;BME280;63750;52.418;20.742;2023-03-01T05:03:37;101823.62;;;1.27;55.59
75172;BME280;63750;52.418;20.742;2023-03-01T05:06:05;101827.09;;;1.28;55.74
75172;BME280;63750;52.418;20.742;2023-03-01T05:08:33;101831.62;;;1.28;55.63
75172;BME280;63750;52.418;20.742;2023-03-01T05:11:00;101832.08;;;1.31;55.79
75172;BME280;63750;52.418;20.742;2023-03-01T05:13:27;101837.32;;;1.31;55.81
75172;BME280;63750;52.418;20.742;2023-03-01T05:15:56;101832.75;;;1.32;55.96
75172;BME280;63750;52.418;20.742;2023-03-01T05:18:25;101839.02;;;1.32;55.89
75172;BME280;63750;52.418;20.742;2023-03-01T05:20:53;101838.77;;;1.35;55.89
75172;BME280;63750;52.418;20.742;2023-03-01T05:23:21;101841.50;;;1.37;55.97
75172;BME280;63750;52.418;20.742;2023-03-01T05:25:48;101839.89;;;1.38;55.99
75172;BME280;63750;52.418;20.742;2023-03-01T05:28:15;101840.70;;;1.40;55.82
75172;BME280;63750;52.418;20.742;2023-03-01T05:30:43;101845.86;;;1.44;55.89
75172;BME280;63750;52.418;20.742;2023-03-01T05:33:10;101850.71;;;1.45;55.90
75172;BME280;63750;52.418;20.742;2023-03-01T05:35:38;101858.33;;;1.48;55.96
75172;BME280;63750;52.418;20.742;2023-03-01T05:38:06;101860.77;;;1.48;55.94
75172;BME280;63750;52.418;20.742;2023-03-01T05:40:34;101862.40;;;1.45;55.90
75172;BME280;63750;52.418;20.742;2023-03-01T05:43:01;101863.21;;;1.48;55.84
75172;BME280;63750;52.418;20.742;2023-03-01T05:45:29;101861.48;;;1.47;56.04
75172;BME280;63750;52.418;20.742;2023-03-01T05:47:56;101865.65;;;1.48;55.85
75172;BME280;63750;52.418;20.742;2023-03-01T05:50:26;101868.00;;;1.45;55.92
75172;BME280;63750;52.418;20.742;2023-03-01T05:52:58;101868.05;;;1.43;55.99
75172;BME280;63750;52.418;20.742;2023-03-01T05:55:27;101867.90;;;1.42;55.99
75172;BME280;63750;52.418;20.742;2023-03-01T05:57:55;101867.35;;;1.43;56.29
75172;BME280;63750;52.418;20.742;2023-03-01T06:00:25;101864.02;;;1.44;56.19
75172;BME280;63750;52.418;20.742;2023-03-01T06:02:54;101867.77;;;1.47;56.10
75172;BME280;63750;52.418;20.742;2023-03-01T06:05:22;101870.28;;;1.50;56.11
75172;BME280;63750;52.418;20.742;2023-03-01T06:07:49;101869.02;;;1.52;56.35
75172;BME280;63750;52.418;20.742;2023-03-01T06:10:18;101866.09;;;1.57;56.07
75172;BME280;63750;52.418;20.742;2023-03-01T06:12:45;101862.17;;;1.60;56.30
75172;BME280;63750;52.418;20.742;2023-03-01T06:15:15;101860.60;;;1.59;56.16
75172;BME280;63750;52.418;20.742;2023-03-01T06:17:45;101863.98;;;1.63;56.23
75172;BME280;63750;52.418;20.742;2023-03-01T06:20:15;101868.43;;;1.66;56.16
75172;BME280;63750;52.418;20.742;2023-03-01T06:22:43;101868.20;;;1.69;56.03
75172;BME280;63750;52.418;20.742;2023-03-01T06:25:12;101864.13;;;1.76;56.33
75172;BME280;63750;52.418;20.742;2023-03-01T06:27:40;101867.29;;;1.82;56.01
75172;BME280;63750;52.418;20.742;2023-03-01T06:30:10;101867.55;;;1.85;55.73
75172;BME280;63750;52.418;20.742;2023-03-01T06:32:38;101864.33;;;1.87;55.99
75172;BME280;63750;52.418;20.742;2023-03-01T06:35:07;101861.06;;;1.92;55.67
75172;BME280;63750;52.418;20.742;2023-03-01T06:37:35;101856.05;;;1.95;55.81
75172;BME280;63750;52.418;20.742;2023-03-01T06:40:02;101857.34;;;1.99;55.74
75172;BME280;63750;52.418;20.742;2023-03-01T06:42:29;101859.83;;;2.04;55.54
75172;BME280;63750;52.418;20.742;2023-03-01T06:44:57;101857.32;;;2.11;55.54
75172;BME280;63750;52.418;20.742;2023-03-01T06:47:24;101852.66;;;2.14;55.70
75172;BME280;63750;52.418;20.742;2023-03-01T06:49:52;101852.11;;;2.21;55.64
75172;BME280;63750;52.418;20.742;2023-03-01T06:52:19;101854.75;;;2.26;55.57
75172;BME280;63750;52.418;20.742;2023-03-01T06:54:46;101857.58;;;2.31;55.53
75172;BME280;63750;52.418;20.742;2023-03-01T06:57:14;101861.95;;;2.36;55.64
75172;BME280;63750;52.418;20.742;2023-03-01T06:59:41;101866.98;;;2.42;55.51
75172;BME280;63750;52.418;20.742;2023-03-01T07:02:11;101864.38;;;2.48;55.39
75172;BME280;63750;52.418;20.742;2023-03-01T07:04:39;101871.83;;;2.55;55.42
75172;BME280;63750;52.418;20.742;2023-03-01T07:07:06;101868.15;;;2.61;55.43
75172;BME280;63750;52.418;20.742;2023-03-01T07:09:34;101868.70;;;2.66;55.17
75172;BME280;63750;52.418;20.742;2023-03-01T07:12:02;101864.89;;;2.69;55.16
75172;BME280;63750;52.418;20.742;2023-03-01T07:14:29;101860.83;;;2.76;55.17
75172;BME280;63750;52.418;20.742;2023-03-01T07:16:57;101857.11;;;2.88;55.10
75172;BME280;63750;52.418;20.742;2023-03-01T07:19:24;101854.23;;;2.95;55.02
75172;BME280;63750;52.418;20.742;2023-03-01T07:21:52;101852.48;;;3.05;54.97
75172;BME280;63750;52.418;20.742;2023-03-01T07:24:19;101845.70;;;3.09;54.91
75172;BME280;63750;52.418;20.742;2023-03-01T07:26:49;101844.73;;;3.06;54.93
75172;BME280;63750;52.418;20.742;2023-03-01T07:29:17;101839.36;;;3.05;54.77
75172;BME280;63750;52.418;20.742;2023-03-01T07:31:45;101840.10;;;3.09;54.68
75172;BME280;63750;52.418;20.742;2023-03-01T07:34:13;101845.25;;;3.12;54.73
75172;BME280;63750;52.418;20.742;2023-03-01T07:36:40;101845.07;;;3.16;54.65
75172;BME280;63750;52.418;20.742;2023-03-01T07:39:07;101847.95;;;3.25;54.60
75172;BME280;63750;52.418;20.742;2023-03-01T07:41:35;101848.52;;;3.33;54.49
75172;BME280;63750;52.418;20.742;2023-03-01T07:44:02;101851.04;;;3.41;54.39
75172;BME280;63750;52.418;20.742;2023-03-01T07:46:29;101858.52;;;3.52;54.36
75172;BME280;63750;52.418;20.742;2023-03-01T07:48:57;101861.20;;;3.65;54.35
75172;BME280;63750;52.418;20.742;2023-03-01T07:51:25;101860.73;;;3.68;54.11
75172;BME280;63750;52.418;20.742;2023-03-01T07:53:52;101860.38;;;3.73;54.04
75172;BME280;63750;52.418;20.742;2023-03-01T07:56:19;101860.33;;;3.79;54.10
75172;BME280;63750;52.418;20.742;2023-03-01T07:58:46;101859.56;;;3.85;54.03
75172;BME280;63750;52.418;20.742;2023-03-01T08:01:16;101857.04;;;3.96;53.97
75172;BME280;63750;52.418;20.742;2023-03-01T08:03:44;101857.27;;;3.99;53.94
75172;BME280;63750;52.418;20.742;2023-03-01T08:06:13;101850.36;;;4.05;53.87
75172;BME280;63750;52.418;20.742;2023-03-01T08:08:41;101841.64;;;4.13;53.86
75172;BME280;63750;52.418;20.742;2023-03-01T08:11:12;101842.37;;;4.26;53.80
75172;BME280;63750;52.418;20.742;2023-03-01T08:13:39;101840.85;;;4.41;53.85
75172;BME280;63750;52.418;20.742;2023-03-01T08:16:10;101842.35;;;4.52;53.74
75172;BME280;63750;52.418;20.742;2023-03-01T08:18:38;101839.96;;;4.63;53.99
75172;BME280;63750;52.418;20.742;2023-03-01T08:21:07;101840.48;;;4.72;53.45
75172;BME280;63750;52.418;20.742;2023-03-01T08:23:35;101845.26;;;4.83;53.58
75172;BME280;63750;52.418;20.742;2023-03-01T08:26:07;101845.19;;;4.93;53.64
75172;BME280;63750;52.418;20.742;2023-03-01T08:28:35;101839.45;;;5.00;53.40
75172;BME280;63750;52.418;20.742;2023-03-01T08:31:03;101842.27;;;5.08;53.23
75172;BME280;63750;52.418;20.742;2023-03-01T08:33:30;101846.83;;;5.16;52.96
75172;BME280;63750;52.418;20.742;2023-03-01T08:36:05;101847.84;;;5.25;52.83
75172;BME280;63750;52.418;20.742;2023-03-01T08:38:33;101844.35;;;5.37;53.08
75172;BME280;63750;52.418;20.742;2023-03-01T08:41:01;101842.65;;;5.51;52.93
75172;BME280;63750;52.418;20.742;2023-03-01T08:43:29;101845.30;;;5.66;52.67
75172;BME280;63750;52.418;20.742;2023-03-01T08:45:57;101844.11;;;5.81;52.67
75172;BME280;63750;52.418;20.742;2023-03-01T08:48:24;101845.35;;;5.92;52.82
75172;BME280;63750;52.418;20.742;2023-03-01T08:50:52;101847.13;;;6.11;52.40
75172;BME280;63750;52.418;20.742;2023-03-01T08:53:19;101847.40;;;6.27;52.22
75172;BME280;63750;52.418;20.742;2023-03-01T08:55:47;101851.59;;;6.39;51.99
75172;BME280;63750;52.418;20.742;2023-03-01T08:58:14;101850.95;;;6.52;51.89
75172;BME280;63750;52.418;20.742;2023-03-01T09:00:42;101847.86;;;6.64;51.89
75172;BME280;63750;52.418;20.742;2023-03-01T09:03:09;101845.80;;;6.74;51.76
75172;BME280;63750;52.418;20.742;2023-03-01T09:05:37;101844.97;;;6.87;51.72
75172;BME280;63750;52.418;20.742;2023-03-01T09:08:05;101846.11;;;6.99;51.51
75172;BME280;63750;52.418;20.742;2023-03-01T09:10:32;101844.48;;;7.03;51.28
75172;BME280;63750;52.418;20.742;2023-03-01T09:12:59;101843.26;;;7.06;50.92
75172;BME280;63750;52.418;20.742;2023-03-01T09:15:27;101842.38;;;7.14;50.98
75172;BME280;63750;52.418;20.742;2023-03-01T09:17:54;101841.40;;;7.19;50.79
75172;BME280;63750;52.418;20.742;2023-03-01T09:20:21;101838.05;;;7.22;50.71
75172;BME280;63750;52.418;20.742;2023-03-01T09:22:49;101836.59;;;7.16;50.57
75172;BME280;63750;52.418;20.742;2023-03-01T09:25:16;101833.98;;;7.19;50.46
75172;BME280;63750;52.418;20.742;2023-03-01T09:27:44;101833.88;;;7.21;50.27
75172;BME280;63750;52.418;20.742;2023-03-01T09:30:13;101831.77;;;7.24;50.35
75172;BME280;63750;52.418;20.742;2023-03-01T09:32:40;101831.09;;;7.26;50.39
75172;BME280;63750;52.418;20.742;2023-03-01T09:35:09;101831.63;;;7.23;50.30
75172;BME280;63750;52.418;20.742;2023-03-01T09:37:37;101827.86;;;7.21;50.33
75172;BME280;63750;52.418;20.742;2023-03-01T09:40:08;101825.81;;;7.20;50.14
75172;BME280;63750;52.418;20.742;2023-03-01T09:42:48;101826.87;;;7.30;50.35
75172;BME280;63750;52.418;20.742;2023-03-01T09:45:27;101827.16;;;7.44;50.35
75172;BME280;63750;52.418;20.742;2023-03-01T09:47:57;101823.26;;;7.61;50.81
75172;BME280;63750;52.418;20.742;2023-03-01T09:50:27;101820.59;;;7.97;51.64
75172;BME280;63750;52.418;20.742;2023-03-01T09:53:01;101822.60;;;8.46;52.20
75172;BME280;63750;52.418;20.742;2023-03-01T09:55:33;101814.23;;;8.65;51.47
75172;BME280;63750;52.418;20.742;2023-03-01T09:58:06;101811.73;;;8.81;51.31
75172;BME280;63750;52.418;20.742;2023-03-01T10:00:46;101804.73;;;8.97;51.31
75172;BME280;63750;52.418;20.742;2023-03-01T10:03:18;101798.15;;;9.38;51.45
75172;BME280;63750;52.418;20.742;2023-03-01T10:05:59;101796.27;;;9.66;50.54
75172;BME280;63750;52.418;20.742;2023-03-01T10:08:34;101793.65;;;9.90;50.41
75172;BME280;63750;52.418;20.742;2023-03-01T10:11:04;101791.93;;;10.25;50.77
75172;BME280;63750;52.418;20.742;2023-03-01T10:13:37;101781.98;;;10.23;49.42
75172;BME280;63750;52.418;20.742;2023-03-01T10:16:13;101786.63;;;10.14;49.01
75172;BME280;63750;52.418;20.742;2023-03-01T10:18:43;101785.74;;;10.28;49.34
75172;BME280;63750;52.418;20.742;2023-03-01T10:21:16;101778.88;;;10.48;49.09
75172;BME280;63750;52.418;20.742;2023-03-01T10:23:44;101781.36;;;10.69;49.19
75172;BME280;63750;52.418;20.742;2023-03-01T10:26:47;101780.95;;;10.70;48.34
75172;BME280;63750;52.418;20.742;2023-03-01T10:29:15;101777.88;;;10.57;47.88
75172;BME280;63750;52.418;20.742;2023-03-01T10:31:45;101776.86;;;10.60;47.06
75172;BME280;63750;52.418;20.742;2023-03-01T10:34:15;101774.52;;;10.60;47.12
75172;BME280;63750;52.418;20.742;2023-03-01T10:36:44;101776.66;;;10.57;46.89
75172;BME280;63750;52.418;20.742;2023-03-01T10:39:17;101774.73;;;10.65;47.05
75172;BME280;63750;52.418;20.742;2023-03-01T10:42:00;101774.70;;;10.76;47.55
75172;BME280;63750;52.418;20.742;2023-03-01T10:44:42;101770.33;;;10.93;47.00
75172;BME280;63750;52.418;20.742;2023-03-01T10:47:19;101769.40;;;11.09;47.04
75172;BME280;63750;52.418;20.742;2023-03-01T10:49:58;101768.84;;;11.07;46.94
75172;BME280;63750;52.418;20.742;2023-03-01T10:52:29;101770.13;;;11.31;47.09
75172;BME280;63750;52.418;20.742;2023-03-01T10:54:59;101769.98;;;11.41;46.48
75172;BME280;63750;52.418;20.742;2023-03-01T10:57:34;101769.49;;;11.43;46.06
75172;BME280;63750;52.418;20.742;2023-03-01T11:00:17;101766.93;;;11.67;46.85
75172;BME280;63750;52.418;20.742;2023-03-01T11:02:48;101769.20;;;11.99;46.82
75172;BME280;63750;52.418;20.742;2023-03-01T11:05:23;101771.40;;;12.22;46.68
75172;BME280;63750;52.418;20.742;2023-03-01T11:07:52;101773.27;;;12.49;46.55
75172;BME280;63750;52.418;20.742;2023-03-01T11:10:23;101767.09;;;12.54;45.59
75172;BME280;63750;52.418;20.742;2023-03-01T11:12:52;101758.36;;;12.54;45.31
75172;BME280;63750;52.418;20.742;2023-03-01T11:15:26;101755.54;;;12.65;44.99
75172;BME280;63750;52.418;20.742;2023-03-01T11:17:54;101750.89;;;12.86;45.14
75172;BME280;63750;52.418;20.742;2023-03-01T11:20:29;101739.81;;;13.03;44.88
75172;BME280;63750;52.418;20.742;2023-03-01T11:22:59;101742.96;;;13.22;44.51
75172;BME280;63750;52.418;20.742;2023-03-01T11:25:31;101743.34;;;13.24;43.84
75172;BME280;63750;52.418;20.742;2023-03-01T11:28:02;101744.20;;;13.35;44.13
75172;BME280;63750;52.418;20.742;2023-03-01T11:30:34;101742.93;;;13.42;43.87
75172;BME280;63750;52.418;20.742;2023-03-01T11:33:13;101738.71;;;13.28;43.13
75172;BME280;63750;52.418;20.742;2023-03-01T11:35:47;101739.39;;;13.26;43.30
75172;BME280;63750;52.418;20.742;2023-03-01T11:38:21;101737.00;;;13.45;43.68
75172;BME280;63750;52.418;20.742;2023-03-01T11:40:54;101729.55;;;13.47;43.10
75172;BME280;63750;52.418;20.742;2023-03-01T11:43:28;101731.54;;;13.38;42.30
75172;BME280;63750;52.418;20.742;2023-03-01T11:46:15;101734.71;;;13.41;42.94
75172;BME280;63750;52.418;20.742;2023-03-01T11:48:56;101727.95;;;13.49;43.09
75172;BME280;63750;52.418;20.742;2023-03-01T11:51:33;101731.98;;;13.61;42.59
75172;BME280;63750;52.418;20.742;2023-03-01T11:54:17;101733.28;;;13.56;42.39
75172;BME280;63750;52.418;20.742;2023-03-01T11:56:48;101733.95;;;13.52;42.24
75172;BME280;63750;52.418;20.742;2023-03-01T11:59:30;101733.77;;;13.65;42.68
75172;BME280;63750;52.418;20.742;2023-03-01T12:02:23;101736.10;;;13.89;42.22
75172;BME280;63750;52.418;20.742;2023-03-01T12:05:12;101733.70;;;13.79;42.25
75172;BME280;63750;52.418;20.742;2023-03-01T12:07:48;101731.45;;;13.63;41.98
75172;BME280;63750;52.418;20.742;2023-03-01T12:10:23;101733.55;;;13.70;42.08
75172;BME280;63750;52.418;20.742;2023-03-01T12:13:03;101734.55;;;13.86;41.93
75172;BME280;63750;52.418;20.742;2023-03-01T12:15:45;101728.59;;;14.06;41.77
75172;BME280;63750;52.418;20.742;2023-03-01T12:18:25;101726.11;;;14.24;41.84
75172;BME280;63750;52.418;20.742;2023-03-01T12:21:05;101723.10;;;14.43;41.58
75172;BME280;63750;52.418;20.742;2023-03-01T12:23:55;101722.64;;;14.59;41.75
75172;BME280;63750;52.418;20.742;2023-03-01T12:26:29;101719.56;;;14.84;41.57
75172;BME280;63750;52.418;20.742;2023-03-01T12:29:06;101716.52;;;15.07;41.08
75172;BME280;63750;52.418;20.742;2023-03-01T12:32:06;101716.47;;;15.30;40.94
75172;BME280;63750;52.418;20.742;2023-03-01T12:35:09;101709.61;;;15.35;40.96
75172;BME280;63750;52.418;20.742;2023-03-01T12:37:54;101712.35;;;15.40;40.42
75172;BME280;63750;52.418;20.742;2023-03-01T12:40:45;101709.09;;;15.52;40.17
75172;BME280;63750;52.418;20.742;2023-03-01T12:43:24;101708.52;;;15.63;39.90
75172;BME280;63750;52.418;20.742;2023-03-01T12:46:06;101709.57;;;15.77;39.80
75172;BME280;63750;52.418;20.742;2023-03-01T12:48:46;101705.66;;;15.86;39.25
75172;BME280;63750;52.418;20.742;2023-03-01T12:51:17;101700.11;;;15.69;38.80
75172;BME280;63750;52.418;20.742;2023-03-01T12:53:48;101695.48;;;15.51;39.11
75172;BME280;63750;52.418;20.742;2023-03-01T12:56:19;101693.44;;;15.66;39.20
75172;BME280;63750;52.418;20.742;2023-03-01T12:58:54;101691.38;;;15.87;39.14
75172;BME280;63750;52.418;20.742;2023-03-01T13:01:33;101691.57;;;16.04;39.18
75172;BME280;63750;52.418;20.742;2023-03-01T13:04:21;101695.20;;;16.13;38.90